sensor_id;sensor_type;location;lat;lon;timestamp;temperature;humidity
32787;DHT22;19139;49.372;8.580;2024-02-26T00:00:38;9.70;99.80
32787;DHT22;19139;49.372;8.580;2024-02-26T00:03:05;9.70;99.90
32787;DHT22;19139;49.372;8.580;2024-02-26T00:05:32;9.60;99.90
32787;DHT22;19139;49.372;8.580;2024-02-26T00:07:59;9.70;99.90
32787;DHT22;19139;49.372;8.580;2024-02-26T00:10:30;9.60;99.90
32787;DHT22;19139;49.372;8.580;2024-02-26T00:12:56;9.60;99.90
32787;DHT22;19139;49.372;8.580;2024-02-26T00:15:23;9.60;99.90
32787;DHT22;19139;49.372;8.580;2024-02-26T00:17:51;9.60;99.90
32787;DHT22;19139;49.372;8.580;2024-02-26T00:20:18;9.60;99.90
32787;DHT22;19139;49.372;8.580;2024-02-26T00:22:45;9.60;99.90
32787;DHT22;19139;49.372;8.580;2024-02-26T00:25:11;9.70;99.90
32787;DHT22;19139;49.372;8.580;2024-02-26T00:27:39;9.70;99.90
32787;DHT22;19139;49.372;8.580;2024-02-26T00:30:08;9.70;99.90
32787;DHT22;19139;49.372;8.580;2024-02-26T00:32:35;9.80;99.80
32787;DHT22;19139;49.372;8.580;2024-02-26T00:35:02;9.70;99.90
32787;DHT22;19139;49.372;8.580;2024-02-26T00:37:29;9.70;99.90
32787;DHT22;19139;49.372;8.580;2024-02-26T00:39:56;9.70;99.90
32787;DHT22;19139;49.372;8.580;2024-02-26T00:42:23;9.70;99.90
32787;DHT22;19139;49.372;8.580;2024-02-26T00:44:50;9.70;99.90
32787;DHT22;19139;49.372;8.580;2024-02-26T00:47:16;9.70;99.90
32787;DHT22;19139;49.372;8.580;2024-02-26T00:49:43;9.60;99.90
32787;DHT22;19139;49.372;8.580;2024-02-26T00:52:10;9.70;99.90
32787;DHT22;19139;49.372;8.580;2024-02-26T00:54:37;9.60;99.90
32787;DHT22;19139;49.372;8.580;2024-02-26T00:57:04;9.70;99.90
32787;DHT22;19139;49.372;8.580;2024-02-26T00:59:30;9.60;99.90
32787;DHT22;19139;49.372;8.580;2024-02-26T01:01:57;9.70;99.90
32787;DHT22;19139;49.372;8.580;2024-02-26T01:04:26;9.70;99.90
32787;DHT22;19139;49.372;8.580;2024-02-26T01:06:54;9.60;99.90
32787;DHT22;19139;49.372;8.580;2024-02-26T01:09:21;9.60;99.90
32787;DHT22;19139;49.372;8.580;2024-02-26T01:11:48;9.60;99.90
32787;DHT22;19139;49.372;8.580;2024-02-26T01:14:15;9.50;99.90
32787;DHT22;19139;49.372;8.580;2024-02-26T01:16:41;9.50;99.90
32787;DHT22;19139;49.372;8.580;2024-02-26T01:19:08;9.50;99.90
32787;DHT22;19139;49.372;8.580;2024-02-26T01:21:35;9.50;99.90
32787;DHT22;19139;49.372;8.580;2024-02-26T01:24:02;9.50;99.90
32787;DHT22;19139;49.372;8.580;2024-02-26T01:26:29;9.50;99.90
32787;DHT22;19139;49.372;8.580;2024-02-26T01:28:56;9.40;99.90
32787;DHT22;19139;49.372;8.580;2024-02-26T01:31:22;9.40;99.90
32787;DHT22;19139;49.372;8.580;2024-02-26T01:33:49;9.40;99.90
32787;DHT22;19139;49.372;8.580;2024-02-26T01:36:16;9.40;99.90
32787;DHT22;19139;49.372;8.580;2024-02-26T01:38:43;9.30;99.90
32787;DHT22;19139;49.372;8.580;2024-02-26T01:41:10;9.30;99.90
32787;DHT22;19139;49.372;8.580;2024-02-26T01:43:37;9.30;99.90
32787;DHT22;19139;49.372;8.580;2024-02-26T01:46:04;9.20;99.90
32787;DHT22;19139;49.372;8.580;2024-02-26T01:48:31;9.20;99.90
32787;DHT22;19139;49.372;8.580;2024-02-26T01:50:58;9.20;99.90
32787;DHT22;19139;49.372;8.580;2024-02-26T01:53:25;9.10;99.90
32787;DHT22;19139;49.372;8.580;2024-02-26T01:55:52;9.10;99.90
32787;DHT22;19139;49.372;8.580;2024-02-26T01:58:19;9.10;99.90
32787;DHT22;19139;49.372;8.580;2024-02-26T02:00:46;9.00;99.90
32787;DHT22;19139;49.372;8.580;2024-02-26T02:03:13;9.00;99.90
32787;DHT22;19139;49.372;8.580;2024-02-26T02:05:40;8.90;99.90
32787;DHT22;19139;49.372;8.580;2024-02-26T02:08:10;9.00;99.90
32787;DHT22;19139;49.372;8.580;2024-02-26T02:10:43;8.80;99.90
32787;DHT22;19139;49.372;8.580;2024-02-26T02:13:10;8.90;99.90
32787;DHT22;19139;49.372;8.580;2024-02-26T02:15:37;8.80;99.90
32787;DHT22;19139;49.372;8.580;2024-02-26T02:18:04;8.70;99.90
32787;DHT22;19139;49.372;8.580;2024-02-26T02:20:34;8.70;99.90
32787;DHT22;19139;49.372;8.580;2024-02-26T02:23:02;8.70;99.90
32787;DHT22;19139;49.372;8.580;2024-02-26T02:25:28;8.70;99.90
32787;DHT22;19139;49.372;8.580;2024-02-26T02:27:55;8.70;99.90
32787;DHT22;19139;49.372;8.580;2024-02-26T02:30:26;8.70;99.90
32787;DHT22;19139;49.372;8.580;2024-02-26T02:32:55;8.70;99.90
32787;DHT22;19139;49.372;8.580;2024-02-26T02:35:24;8.70;99.90
32787;DHT22;19139;49.372;8.580;2024-02-26T02:37:54;8.70;99.90
32787;DHT22;19139;49.372;8.580;2024-02-26T02:40:20;8.60;99.90
32787;DHT22;19139;49.372;8.580;2024-02-26T02:42:47;8.70;99.90
32787;DHT22;19139;49.372;8.580;2024-02-26T02:45:14;8.70;99.90
32787;DHT22;19139;49.372;8.580;2024-02-26T02:47:41;8.70;99.90
32787;DHT22;19139;49.372;8.580;2024-02-26T02:50:08;8.70;99.90
32787;DHT22;19139;49.372;8.580;2024-02-26T02:52:35;8.70;99.90
32787;DHT22;19139;49.372;8.580;2024-02-26T02:55:01;8.70;99.90
32787;DHT22;19139;49.372;8.580;2024-02-26T02:57:30;8.70;99.90
32787;DHT22;19139;49.372;8.580;2024-02-26T02:59:57;8.60;99.90
32787;DHT22;19139;49.372;8.580;2024-02-26T03:02:24;8.70;99.90
32787;DHT22;19139;49.372;8.580;2024-02-26T03:04:53;8.60;99.90
32787;DHT22;19139;49.372;8.580;2024-02-26T03:07:20;8.60;99.90
32787;DHT22;19139;49.372;8.580;2024-02-26T03:09:47;8.70;99.90
32787;DHT22;19139;49.372;8.580;2024-02-26T03:12:14;8.70;99.90
32787;DHT22;19139;49.372;8.580;2024-02-26T03:14:41;8.60;99.90
32787;DHT22;19139;49.372;8.580;2024-02-26T03:17:08;8.70;99.90
32787;DHT22;19139;49.372;8.580;2024-02-26T03:19:34;8.70;99.90
32787;DHT22;19139;49.372;8.580;2024-02-26T03:22:01;8.70;99.90
32787;DHT22;19139;49.372;8.580;2024-02-26T03:24:28;8.70;99.90
32787;DHT22;19139;49.372;8.580;2024-02-26T03:26:55;8.70;99.90
32787;DHT22;19139;49.372;8.580;2024-02-26T03:29:22;8.70;99.90
32787;DHT22;19139;49.372;8.580;2024-02-26T03:31:49;8.70;99.90
32787;DHT22;19139;49.372;8.580;2024-02-26T03:34:16;8.70;99.90
32787;DHT22;19139;49.372;8.580;2024-02-26T03:36:44;8.60;99.90
32787;DHT22;19139;49.372;8.580;2024-02-26T03:39:11;8.60;99.90
32787;DHT22;19139;49.372;8.580;2024-02-26T03:41:38;8.50;99.90
32787;DHT22;19139;49.372;8.580;2024-02-26T03:44:05;8.40;99.90
32787;DHT22;19139;49.372;8.580;2024-02-26T03:46:31;8.30;99.90
32787;DHT22;19139;49.372;8.580;2024-02-26T03:48:58;8.20;99.90
32787;DHT22;19139;49.372;8.580;2024-02-26T03:51:25;8.20;99.90
32787;DHT22;19139;49.372;8.580;2024-02-26T03:53:53;8.20;99.90
32787;DHT22;19139;49.372;8.580;2024-02-26T03:56:20;8.10;99.90
32787;DHT22;19139;49.372;8.580;2024-02-26T03:58:47;8.20;99.90
32787;DHT22;19139;49.372;8.580;2024-02-26T04:01:13;8.10;99.90
32787;DHT22;19139;49.372;8.580;2024-02-26T04:03:40;8.10;99.90
32787;DHT22;19139;49.372;8.580;2024-02-26T04:06:11;8.10;99.90
32787;DHT22;19139;49.372;8.580;2024-02-26T04:08:38;8.10;99.90
32787;DHT22;19139;49.372;8.580;2024-02-26T04:11:04;8.00;99.90
32787;DHT22;19139;49.372;8.580;2024-02-26T04:13:34;8.00;99.90
32787;DHT22;19139;49.372;8.580;2024-02-26T04:16:01;8.00;99.90
32787;DHT22;19139;49.372;8.580;2024-02-26T04:18:29;8.00;99.90
32787;DHT22;19139;49.372;8.580;2024-02-26T04:20:56;8.10;99.90
32787;DHT22;19139;49.372;8.580;2024-02-26T04:23:23;8.10;99.90
32787;DHT22;19139;49.372;8.580;2024-02-26T04:25:50;8.10;99.90
32787;DHT22;19139;49.372;8.580;2024-02-26T04:28:19;8.10;99.90
32787;DHT22;19139;49.372;8.580;2024-02-26T04:30:52;8.10;99.90
32787;DHT22;19139;49.372;8.580;2024-02-26T04:33:19;8.10;99.90
32787;DHT22;19139;49.372;8.580;2024-02-26T04:35:46;8.00;99.90
32787;DHT22;19139;49.372;8.580;2024-02-26T04:38:12;8.00;99.90
32787;DHT22;19139;49.372;8.580;2024-02-26T04:40:39;8.10;99.90
32787;DHT22;19139;49.372;8.580;2024-02-26T04:43:06;8.10;99.90
32787;DHT22;19139;49.372;8.580;2024-02-26T04:45:33;8.10;99.90
32787;DHT22;19139;49.372;8.580;2024-02-26T04:48:00;8.10;99.90
32787;DHT22;19139;49.372;8.580;2024-02-26T04:50:27;8.10;99.90
32787;DHT22;19139;49.372;8.580;2024-02-26T04:52:53;8.10;99.90
32787;DHT22;19139;49.372;8.580;2024-02-26T04:55:20;8.10;99.90
32787;DHT22;19139;49.372;8.580;2024-02-26T04:57:47;8.20;99.90
32787;DHT22;19139;49.372;8.580;2024-02-26T05:00:14;8.20;99.90
32787;DHT22;19139;49.372;8.580;2024-02-26T05:02:41;8.10;99.90
32787;DHT22;19139;49.372;8.580;2024-02-26T05:05:08;8.20;99.90
32787;DHT22;19139;49.372;8.580;2024-02-26T05:07:40;8.20;99.90
32787;DHT22;19139;49.372;8.580;2024-02-26T05:10:08;8.10;99.90
32787;DHT22;19139;49.372;8.580;2024-02-26T05:12:35;8.10;99.90
32787;DHT22;19139;49.372;8.580;2024-02-26T05:15:03;8.20;99.90
32787;DHT22;19139;49.372;8.580;2024-02-26T05:17:30;8.30;99.90
32787;DHT22;19139;49.372;8.580;2024-02-26T05:19:57;8.40;99.90
32787;DHT22;19139;49.372;8.580;2024-02-26T05:22:24;8.40;99.90
32787;DHT22;19139;49.372;8.580;2024-02-26T05:24:50;8.50;99.90
32787;DHT22;19139;49.372;8.580;2024-02-26T05:27:18;8.50;99.90
32787;DHT22;19139;49.372;8.580;2024-02-26T05:29:45;8.40;99.90
32787;DHT22;19139;49.372;8.580;2024-02-26T05:32:12;8.30;99.90
32787;DHT22;19139;49.372;8.580;2024-02-26T05:34:39;8.40;99.90
32787;DHT22;19139;49.372;8.580;2024-02-26T05:37:07;8.40;99.90
32787;DHT22;19139;49.372;8.580;2024-02-26T05:39:34;8.40;99.90
32787;DHT22;19139;49.372;8.580;2024-02-26T05:42:01;8.40;99.90
32787;DHT22;19139;49.372;8.580;2024-02-26T05:44:28;8.50;99.90
32787;DHT22;19139;49.372;8.580;2024-02-26T05:46:55;8.30;99.90
32787;DHT22;19139;49.372;8.580;2024-02-26T05:49:22;8.30;99.90
32787;DHT22;19139;49.372;8.580;2024-02-26T05:51:49;8.40;99.90
32787;DHT22;19139;49.372;8.580;2024-02-26T05:54:16;8.40;99.90
32787;DHT22;19139;49.372;8.580;2024-02-26T05:56:43;8.40;99.90
32787;DHT22;19139;49.372;8.580;2024-02-26T05:59:10;8.40;99.90
32787;DHT22;19139;49.372;8.580;2024-02-26T06:01:36;8.40;99.90
32787;DHT22;19139;49.372;8.580;2024-02-26T06:04:03;8.40;99.90
32787;DHT22;19139;49.372;8.580;2024-02-26T06:06:30;8.40;99.90
32787;DHT22;19139;49.372;8.580;2024-02-26T06:08:57;8.40;99.90
32787;DHT22;19139;49.372;8.580;2024-02-26T06:11:24;8.40;99.90
32787;DHT22;19139;49.372;8.580;2024-02-26T06:13:50;8.30;99.90
32787;DHT22;19139;49.372;8.580;2024-02-26T06:16:17;8.30;99.90
32787;DHT22;19139;49.372;8.580;2024-02-26T06:18:44;8.30;99.90
32787;DHT22;19139;49.372;8.580;2024-02-26T06:21:11;8.30;99.90
32787;DHT22;19139;49.372;8.580;2024-02-26T06:23:39;8.20;99.90
32787;DHT22;19139;49.372;8.580;2024-02-26T06:26:06;8.30;99.90
32787;DHT22;19139;49.372;8.580;2024-02-26T06:28:33;8.20;99.90
32787;DHT22;19139;49.372;8.580;2024-02-26T06:31:02;8.30;99.90
32787;DHT22;19139;49.372;8.580;2024-02-26T06:33:29;8.20;99.90
32787;DHT22;19139;49.372;8.580;2024-02-26T06:35:56;8.10;99.90
32787;DHT22;19139;49.372;8.580;2024-02-26T06:38:22;8.10;99.90
32787;DHT22;19139;49.372;8.580;2024-02-26T06:40:49;8.10;99.90
32787;DHT22;19139;49.372;8.580;2024-02-26T06:43:16;8.10;99.90
32787;DHT22;19139;49.372;8.580;2024-02-26T06:45:43;8.10;99.90
32787;DHT22;19139;49.372;8.580;2024-02-26T06:48:10;8.20;99.90
32787;DHT22;19139;49.372;8.580;2024-02-26T06:50:36;8.20;99.90
32787;DHT22;19139;49.372;8.580;2024-02-26T06:53:03;8.20;99.90
32787;DHT22;19139;49.372;8.580;2024-02-26T06:55:30;8.20;99.90
32787;DHT22;19139;49.372;8.580;2024-02-26T06:57:59;8.20;99.90
32787;DHT22;19139;49.372;8.580;2024-02-26T07:00:27;8.20;99.90
32787;DHT22;19139;49.372;8.580;2024-02-26T07:02:53;8.30;99.90
32787;DHT22;19139;49.372;8.580;2024-02-26T07:05:20;8.40;99.90
32787;DHT22;19139;49.372;8.580;2024-02-26T07:07:47;8.40;99.90
32787;DHT22;19139;49.372;8.580;2024-02-26T07:10:14;8.50;99.90
32787;DHT22;19139;49.372;8.580;2024-02-26T07:12:40;8.50;99.90
32787;DHT22;19139;49.372;8.580;2024-02-26T07:15:08;8.50;99.90
32787;DHT22;19139;49.372;8.580;2024-02-26T07:17:36;8.50;99.90
32787;DHT22;19139;49.372;8.580;2024-02-26T07:20:03;8.50;99.90
32787;DHT22;19139;49.372;8.580;2024-02-26T07:22:35;8.50;99.90
32787;DHT22;19139;49.372;8.580;2024-02-26T07:25:03;8.50;99.90
32787;DHT22;19139;49.372;8.580;2024-02-26T07:27:30;8.50;99.90
32787;DHT22;19139;49.372;8.580;2024-02-26T07:29:56;8.50;99.90
32787;DHT22;19139;49.372;8.580;2024-02-26T07:32:24;8.50;99.90
32787;DHT22;19139;49.372;8.580;2024-02-26T07:34:50;8.50;99.90
32787;DHT22;19139;49.372;8.580;2024-02-26T07:37:17;8.60;99.90
32787;DHT22;19139;49.372;8.580;2024-02-26T07:39:44;8.60;99.90
32787;DHT22;19139;49.372;8.580;2024-02-26T07:42:11;8.60;99.90
32787;DHT22;19139;49.372;8.580;2024-02-26T07:44:37;8.60;99.90
32787;DHT22;19139;49.372;8.580;2024-02-26T07:47:04;8.60;99.90
32787;DHT22;19139;49.372;8.580;2024-02-26T07:49:31;8.70;99.90
32787;DHT22;19139;49.372;8.580;2024-02-26T07:52:00;8.60;99.90
32787;DHT22;19139;49.372;8.580;2024-02-26T07:54:27;8.70;99.90
32787;DHT22;19139;49.372;8.580;2024-02-26T07:56:54;8.70;99.90
32787;DHT22;19139;49.372;8.580;2024-02-26T07:59:21;8.70;99.90
32787;DHT22;19139;49.372;8.580;2024-02-26T08:01:51;8.70;99.90
32787;DHT22;19139;49.372;8.580;2024-02-26T08:04:24;8.80;99.90
32787;DHT22;19139;49.372;8.580;2024-02-26T08:06:50;8.80;99.90
32787;DHT22;19139;49.372;8.580;2024-02-26T08:09:17;8.80;99.90
32787;DHT22;19139;49.372;8.580;2024-02-26T08:11:44;8.80;99.90
32787;DHT22;19139;49.372;8.580;2024-02-26T08:14:11;8.90;99.90
32787;DHT22;19139;49.372;8.580;2024-02-26T08:16:37;8.90;99.90
32787;DHT22;19139;49.372;8.580;2024-02-26T08:19:04;9.00;99.90
32787;DHT22;19139;49.372;8.580;2024-02-26T08:21:31;9.10;99.90
32787;DHT22;19139;49.372;8.580;2024-02-26T08:23:58;9.20;99.90
32787;DHT22;19139;49.372;8.580;2024-02-26T08:26:24;9.30;99.90
32787;DHT22;19139;49.372;8.580;2024-02-26T08:28:51;9.30;99.90
32787;DHT22;19139;49.372;8.580;2024-02-26T08:31:18;9.40;99.90
32787;DHT22;19139;49.372;8.580;2024-02-26T08:33:45;9.40;99.90
32787;DHT22;19139;49.372;8.580;2024-02-26T08:36:12;9.40;99.90
32787;DHT22;19139;49.372;8.580;2024-02-26T08:38:39;9.30;99.90
32787;DHT22;19139;49.372;8.580;2024-02-26T08:41:06;9.30;99.90
32787;DHT22;19139;49.372;8.580;2024-02-26T08:43:32;9.30;99.90
32787;DHT22;19139;49.372;8.580;2024-02-26T08:45:59;9.40;99.90
32787;DHT22;19139;49.372;8.580;2024-02-26T08:48:27;9.50;99.90
32787;DHT22;19139;49.372;8.580;2024-02-26T08:50:54;9.50;99.90
32787;DHT22;19139;49.372;8.580;2024-02-26T08:53:21;9.60;99.90
32787;DHT22;19139;49.372;8.580;2024-02-26T08:55:57;9.60;99.90
32787;DHT22;19139;49.372;8.580;2024-02-26T08:58:24;9.60;99.90
32787;DHT22;19139;49.372;8.580;2024-02-26T09:00:50;9.60;99.90
32787;DHT22;19139;49.372;8.580;2024-02-26T09:03:17;9.70;99.90
32787;DHT22;19139;49.372;8.580;2024-02-26T09:05:44;9.70;99.90
32787;DHT22;19139;49.372;8.580;2024-02-26T09:08:11;9.80;99.90
32787;DHT22;19139;49.372;8.580;2024-02-26T09:10:38;9.80;99.90
32787;DHT22;19139;49.372;8.580;2024-02-26T09:13:06;9.80;99.90
32787;DHT22;19139;49.372;8.580;2024-02-26T09:15:32;9.80;99.90
32787;DHT22;19139;49.372;8.580;2024-02-26T09:17:59;9.80;99.90
32787;DHT22;19139;49.372;8.580;2024-02-26T09:20:26;9.80;99.90
32787;DHT22;19139;49.372;8.580;2024-02-26T09:22:53;9.80;99.90
32787;DHT22;19139;49.372;8.580;2024-02-26T09:25:20;9.80;99.90
32787;DHT22;19139;49.372;8.580;2024-02-26T09:27:47;9.80;99.90
32787;DHT22;19139;49.372;8.580;2024-02-26T09:30:14;9.80;99.90
32787;DHT22;19139;49.372;8.580;2024-02-26T09:32:41;9.90;99.90
32787;DHT22;19139;49.372;8.580;2024-02-26T09:35:08;10.10;99.90
32787;DHT22;19139;49.372;8.580;2024-02-26T09:37:35;10.20;99.90
32787;DHT22;19139;49.372;8.580;2024-02-26T09:40:04;10.20;99.90
32787;DHT22;19139;49.372;8.580;2024-02-26T09:42:32;10.10;99.90
32787;DHT22;19139;49.372;8.580;2024-02-26T09:45:05;10.20;99.90
32787;DHT22;19139;49.372;8.580;2024-02-26T09:47:35;10.30;99.90
32787;DHT22;19139;49.372;8.580;2024-02-26T09:50:03;10.20;99.90
32787;DHT22;19139;49.372;8.580;2024-02-26T09:52:33;10.20;99.90
32787;DHT22;19139;49.372;8.580;2024-02-26T09:55:01;10.20;99.90
32787;DHT22;19139;49.372;8.580;2024-02-26T09:57:30;10.30;99.90
32787;DHT22;19139;49.372;8.580;2024-02-26T09:59:59;10.40;99.90
32787;DHT22;19139;49.372;8.580;2024-02-26T10:02:30;10.60;99.90
32787;DHT22;19139;49.372;8.580;2024-02-26T10:04:59;10.90;99.90
32787;DHT22;19139;49.372;8.580;2024-02-26T10:07:28;11.10;99.90
32787;DHT22;19139;49.372;8.580;2024-02-26T10:09:56;11.30;99.90
32787;DHT22;19139;49.372;8.580;2024-02-26T10:12:24;11.30;99.90
32787;DHT22;19139;49.372;8.580;2024-02-26T10:14:52;11.30;99.90
32787;DHT22;19139;49.372;8.580;2024-02-26T10:17:19;11.20;99.90
32787;DHT22;19139;49.372;8.580;2024-02-26T10:19:46;11.10;99.90
32787;DHT22;19139;49.372;8.580;2024-02-26T10:22:13;11.00;99.90
32787;DHT22;19139;49.372;8.580;2024-02-26T10:24:40;11.10;99.90
32787;DHT22;19139;49.372;8.580;2024-02-26T10:27:08;11.10;99.90
32787;DHT22;19139;49.372;8.580;2024-02-26T10:29:35;11.30;99.90
32787;DHT22;19139;49.372;8.580;2024-02-26T10:32:02;11.40;99.90
32787;DHT22;19139;49.372;8.580;2024-02-26T10:34:28;11.40;99.90
32787;DHT22;19139;49.372;8.580;2024-02-26T10:36:56;11.50;99.90
32787;DHT22;19139;49.372;8.580;2024-02-26T10:39:23;11.60;99.90
32787;DHT22;19139;49.372;8.580;2024-02-26T10:41:50;11.40;99.90
32787;DHT22;19139;49.372;8.580;2024-02-26T10:44:17;11.50;99.90
32787;DHT22;19139;49.372;8.580;2024-02-26T10:46:47;11.50;99.90
32787;DHT22;19139;49.372;8.580;2024-02-26T10:49:16;11.50;99.90
32787;DHT22;19139;49.372;8.580;2024-02-26T10:51:54;11.70;99.90
32787;DHT22;19139;49.372;8.580;2024-02-26T10:54:21;11.90;99.90
32787;DHT22;19139;49.372;8.580;2024-02-26T10:56:50;12.20;99.90
32787;DHT22;19139;49.372;8.580;2024-02-26T10:59:18;12.10;99.90
32787;DHT22;19139;49.372;8.580;2024-02-26T11:01:48;12.10;99.90
32787;DHT22;19139;49.372;8.580;2024-02-26T11:04:20;12.20;99.90
32787;DHT22;19139;49.372;8.580;2024-02-26T11:06:49;12.20;99.90
32787;DHT22;19139;49.372;8.580;2024-02-26T11:09:17;12.30;99.90
32787;DHT22;19139;49.372;8.580;2024-02-26T11:11:48;12.30;99.90
32787;DHT22;19139;49.372;8.580;2024-02-26T11:14:15;12.40;99.90
32787;DHT22;19139;49.372;8.580;2024-02-26T11:16:43;12.50;99.90
32787;DHT22;19139;49.372;8.580;2024-02-26T11:19:10;12.70;99.90
32787;DHT22;19139;49.372;8.580;2024-02-26T11:21:39;12.80;99.90
32787;DHT22;19139;49.372;8.580;2024-02-26T11:24:10;12.90;99.90
32787;DHT22;19139;49.372;8.580;2024-02-26T11:26:53;12.70;99.90
32787;DHT22;19139;49.372;8.580;2024-02-26T11:29:50;12.60;99.90
32787;DHT22;19139;49.372;8.580;2024-02-26T11:32:19;12.60;99.90
32787;DHT22;19139;49.372;8.580;2024-02-26T11:34:46;12.40;99.90
32787;DHT22;19139;49.372;8.580;2024-02-26T11:37:14;12.50;99.90
32787;DHT22;19139;49.372;8.580;2024-02-26T11:39:41;12.50;99.90
32787;DHT22;19139;49.372;8.580;2024-02-26T11:42:09;12.50;99.90
32787;DHT22;19139;49.372;8.580;2024-02-26T11:44:36;12.50;99.90
32787;DHT22;19139;49.372;8.580;2024-02-26T11:47:19;12.60;99.90
32787;DHT22;19139;49.372;8.580;2024-02-26T11:49:47;12.60;99.90
32787;DHT22;19139;49.372;8.580;2024-02-26T11:52:15;12.60;99.90
32787;DHT22;19139;49.372;8.580;2024-02-26T11:54:50;12.70;99.90
32787;DHT22;19139;49.372;8.580;2024-02-26T12:02:51;13.20;99.90
32787;DHT22;19139;49.372;8.580;2024-02-26T12:05:26;13.20;99.90
32787;DHT22;19139;49.372;8.580;2024-02-26T12:08:05;13.20;99.90
32787;DHT22;19139;49.372;8.580;2024-02-26T12:10:39;13.10;99.90
32787;DHT22;19139;49.372;8.580;2024-02-26T12:13:07;13.10;99.90
32787;DHT22;19139;49.372;8.580;2024-02-26T12:15:41;13.20;99.90
32787;DHT22;19139;49.372;8.580;2024-02-26T12:18:17;13.20;99.90
32787;DHT22;19139;49.372;8.580;2024-02-26T12:20:44;13.40;99.90
32787;DHT22;19139;49.372;8.580;2024-02-26T12:23:15;13.50;99.90
32787;DHT22;19139;49.372;8.580;2024-02-26T12:25:43;13.50;99.90
32787;DHT22;19139;49.372;8.580;2024-02-26T12:28:10;13.60;99.90
32787;DHT22;19139;49.372;8.580;2024-02-26T12:30:37;13.70;99.90
32787;DHT22;19139;49.372;8.580;2024-02-26T12:33:04;14.10;99.90
32787;DHT22;19139;49.372;8.580;2024-02-26T12:35:31;14.20;99.90
32787;DHT22;19139;49.372;8.580;2024-02-26T12:37:58;14.40;99.90
32787;DHT22;19139;49.372;8.580;2024-02-26T12:40:26;14.50;99.90
32787;DHT22;19139;49.372;8.580;2024-02-26T12:42:55;15.00;99.90
32787;DHT22;19139;49.372;8.580;2024-02-26T12:45:22;15.50;99.90
32787;DHT22;19139;49.372;8.580;2024-02-26T12:47:49;15.50;99.90
32787;DHT22;19139;49.372;8.580;2024-02-26T12:50:16;15.40;99.90
32787;DHT22;19139;49.372;8.580;2024-02-26T12:52:45;15.50;99.90
32787;DHT22;19139;49.372;8.580;2024-02-26T12:55:18;15.60;99.90
32787;DHT22;19139;49.372;8.580;2024-02-26T12:57:47;15.60;99.90
32787;DHT22;19139;49.372;8.580;2024-02-26T13:00:18;15.60;99.90
32787;DHT22;19139;49.372;8.580;2024-02-26T13:02:46;15.70;99.90
32787;DHT22;19139;49.372;8.580;2024-02-26T13:05:14;16.00;99.90
32787;DHT22;19139;49.372;8.580;2024-02-26T13:07:45;16.00;99.90
32787;DHT22;19139;49.372;8.580;2024-02-26T13:10:15;16.00;99.60
32787;DHT22;19139;49.372;8.580;2024-02-26T13:12:45;16.40;99.90
32787;DHT22;19139;49.372;8.580;2024-02-26T13:15:17;16.60;98.60
32787;DHT22;19139;49.372;8.580;2024-02-26T13:17:45;16.50;97.50
32787;DHT22;19139;49.372;8.580;2024-02-26T13:20:13;16.60;97.60
32787;DHT22;19139;49.372;8.580;2024-02-26T13:22:41;17.30;98.20
32787;DHT22;19139;49.372;8.580;2024-02-26T13:25:08;17.20;98.30
32787;DHT22;19139;49.372;8.580;2024-02-26T13:27:35;16.90;98.10
32787;DHT22;19139;49.372;8.580;2024-02-26T13:32:29;18.00;96.30
32787;DHT22;19139;49.372;8.580;2024-02-26T13:35:08;17.90;95.90
32787;DHT22;19139;49.372;8.580;2024-02-26T13:37:36;17.70;97.50
32787;DHT22;19139;49.372;8.580;2024-02-26T13:40:06;17.60;96.20
32787;DHT22;19139;49.372;8.580;2024-02-26T13:42:33;18.60;94.00
32787;DHT22;19139;49.372;8.580;2024-02-26T13:45:00;19.90;94.40
32787;DHT22;19139;49.372;8.580;2024-02-26T13:47:27;21.50;90.50
32787;DHT22;19139;49.372;8.580;2024-02-26T13:49:57;22.20;85.90
32787;DHT22;19139;49.372;8.580;2024-02-26T13:52:24;23.40;82.30
32787;DHT22;19139;49.372;8.580;2024-02-26T13:54:52;23.10;81.10
32787;DHT22;19139;49.372;8.580;2024-02-26T13:57:19;21.60;83.20
32787;DHT22;19139;49.372;8.580;2024-02-26T13:59:46;20.40;85.60
32787;DHT22;19139;49.372;8.580;2024-02-26T14:02:13;20.30;88.00
32787;DHT22;19139;49.372;8.580;2024-02-26T14:04:40;20.50;87.70
32787;DHT22;19139;49.372;8.580;2024-02-26T14:07:07;21.70;85.40
32787;DHT22;19139;49.372;8.580;2024-02-26T14:09:35;21.20;84.00
32787;DHT22;19139;49.372;8.580;2024-02-26T14:12:15;20.80;85.70
32787;DHT22;19139;49.372;8.580;2024-02-26T14:14:43;20.00;82.50
32787;DHT22;19139;49.372;8.580;2024-02-26T14:17:12;20.30;88.70
32787;DHT22;19139;49.372;8.580;2024-02-26T14:19:39;19.40;86.10
32787;DHT22;19139;49.372;8.580;2024-02-26T14:22:12;18.40;89.80
32787;DHT22;19139;49.372;8.580;2024-02-26T14:24:39;18.10;92.20
32787;DHT22;19139;49.372;8.580;2024-02-26T14:27:08;20.80;86.60
32787;DHT22;19139;49.372;8.580;2024-02-26T14:29:36;19.50;88.40
32787;DHT22;19139;49.372;8.580;2024-02-26T14:32:04;18.80;90.00
32787;DHT22;19139;49.372;8.580;2024-02-26T14:34:31;17.90;90.10
32787;DHT22;19139;49.372;8.580;2024-02-26T14:36:58;17.80;91.60
32787;DHT22;19139;49.372;8.580;2024-02-26T14:39:24;19.90;91.30
32787;DHT22;19139;49.372;8.580;2024-02-26T14:41:51;23.40;81.80
32787;DHT22;19139;49.372;8.580;2024-02-26T14:44:21;24.30;74.50
32787;DHT22;19139;49.372;8.580;2024-02-26T14:46:48;25.60;73.60
32787;DHT22;19139;49.372;8.580;2024-02-26T14:49:15;23.70;74.10
32787;DHT22;19139;49.372;8.580;2024-02-26T14:51:42;22.40;77.00
32787;DHT22;19139;49.372;8.580;2024-02-26T14:54:14;21.90;77.70
32787;DHT22;19139;49.372;8.580;2024-02-26T14:56:41;20.90;79.10
32787;DHT22;19139;49.372;8.580;2024-02-26T14:59:07;21.20;80.10
32787;DHT22;19139;49.372;8.580;2024-02-26T15:01:34;21.30;80.60
32787;DHT22;19139;49.372;8.580;2024-02-26T15:04:01;20.40;82.70
32787;DHT22;19139;49.372;8.580;2024-02-26T15:06:28;19.10;83.80
32787;DHT22;19139;49.372;8.580;2024-02-26T15:08:55;18.10;88.20
32787;DHT22;19139;49.372;8.580;2024-02-26T15:11:22;17.50;90.40
32787;DHT22;19139;49.372;8.580;2024-02-26T15:13:49;17.20;91.20
32787;DHT22;19139;49.372;8.580;2024-02-26T15:16:19;16.60;91.80
32787;DHT22;19139;49.372;8.580;2024-02-26T15:18:47;16.40;91.90
32787;DHT22;19139;49.372;8.580;2024-02-26T15:21:14;16.40;92.90
32787;DHT22;19139;49.372;8.580;2024-02-26T15:23:44;16.20;93.20
32787;DHT22;19139;49.372;8.580;2024-02-26T15:26:30;16.10;93.00
32787;DHT22;19139;49.372;8.580;2024-02-26T15:28:57;16.10;93.10
32787;DHT22;19139;49.372;8.580;2024-02-26T15:31:23;15.80;93.90
32787;DHT22;19139;49.372;8.580;2024-02-26T15:33:50;15.80;93.60
32787;DHT22;19139;49.372;8.580;2024-02-26T15:36:17;15.90;93.10
32787;DHT22;19139;49.372;8.580;2024-02-26T15:38:44;15.70;93.30
32787;DHT22;19139;49.372;8.580;2024-02-26T15:41:14;15.60;94.50
32787;DHT22;19139;49.372;8.580;2024-02-26T15:43:41;15.40;93.90
32787;DHT22;19139;49.372;8.580;2024-02-26T15:46:08;15.10;95.60
32787;DHT22;19139;49.372;8.580;2024-02-26T15:48:36;15.20;95.00
32787;DHT22;19139;49.372;8.580;2024-02-26T15:51:04;15.10;95.90